Weather at Leming Heliport

Public forecast

Using degrees Fahrenheit for public forecast. Weather courtesy of forecast.io.

Closest aviation weather report (METAR) to Leming Heliport

Closest report is Pleasanton Municipal Airport, 7.0 nm (13.0 km) SSW. Retrieved 2021/03/09 08:35 UTC (15 minutes ago):

KPEZ 090835Z AUTO 00000KT 10SM CLR 12/11 A3028 RMK AO2 T01240109

Closest aviation forecast (TAF) to Leming Heliport

Closest forecast is Stinson Municipal Airport, 16.2 nm (29.9 km) N. Retrieved 2021/03/09 06:39 UTC (2 hours ago):

TAF KSSF 090537Z 0906/1006 14010KT P6SM SCT050 BKN060 FM090800 13005KT P6SM OVC015 FM090900 12003KT 6SM BR OVC008 FM091100 13004KT 3SM BR SCT003 OVC005 FM091600 17014KT P6SM BKN015 FM091900 15012G22KT P6SM OVC040